createdAt,value
2022-11-05T00:00:01.605Z,17.52
2022-11-05T00:02:27.882Z,17.50
2022-11-05T00:04:54.192Z,17.51
2022-11-05T00:07:20.481Z,17.52
2022-11-05T00:09:47.104Z,17.50
2022-11-05T00:12:13.405Z,17.51
2022-11-05T00:14:39.708Z,17.52
2022-11-05T00:17:05.987Z,17.51
2022-11-05T00:19:32.324Z,17.52
2022-11-05T00:21:58.614Z,17.52
2022-11-05T00:24:24.891Z,17.53
2022-11-05T00:26:51.161Z,17.51
2022-11-05T00:29:17.608Z,17.51
2022-11-05T00:31:43.948Z,17.53
2022-11-05T00:34:10.493Z,17.51
2022-11-05T00:36:36.788Z,17.48
2022-11-05T00:39:03.106Z,17.49
2022-11-05T00:41:29.485Z,17.49
2022-11-05T00:43:55.875Z,17.49
2022-11-05T00:46:22.180Z,17.49
2022-11-05T00:48:48.535Z,17.48
2022-11-05T00:51:14.904Z,17.52
2022-11-05T00:53:41.312Z,17.52
2022-11-05T00:56:07.570Z,17.48
2022-11-05T00:58:33.864Z,17.51
2022-11-05T01:01:00.148Z,17.51
2022-11-05T01:03:26.483Z,17.50
2022-11-05T01:05:52.880Z,17.48
2022-11-05T01:08:19.446Z,17.47
2022-11-05T01:10:45.990Z,17.47
2022-11-05T01:13:13.361Z,17.46
2022-11-05T01:15:39.930Z,17.49
2022-11-05T01:18:06.243Z,17.47
2022-11-05T01:20:32.516Z,17.45
2022-11-05T01:22:58.810Z,17.46
2022-11-05T01:25:25.128Z,17.46
2022-11-05T01:27:51.515Z,17.47
2022-11-05T01:30:17.806Z,17.47
2022-11-05T01:32:44.178Z,17.48
2022-11-05T01:35:10.608Z,17.45
2022-11-05T01:37:36.934Z,17.44
2022-11-05T01:40:03.266Z,17.46
2022-11-05T01:42:30.292Z,17.45
2022-11-05T01:44:56.743Z,17.44
2022-11-05T01:47:23.166Z,17.45
2022-11-05T01:49:49.562Z,17.46
2022-11-05T01:52:15.828Z,17.44
2022-11-05T01:54:42.169Z,17.43
2022-11-05T01:57:08.453Z,17.44
2022-11-05T01:59:34.872Z,17.44
2022-11-05T02:02:01.304Z,17.42
2022-11-05T02:04:27.770Z,17.43
2022-11-05T02:06:54.136Z,17.43
2022-11-05T02:09:20.613Z,17.44
2022-11-05T02:11:46.964Z,17.43
2022-11-05T02:14:13.218Z,17.42
2022-11-05T02:16:39.856Z,17.43
2022-11-05T02:19:16.043Z,17.43
2022-11-05T02:21:42.422Z,17.43
2022-11-05T02:24:08.725Z,17.45
2022-11-05T02:26:35.123Z,17.47
2022-11-05T02:29:01.497Z,17.46
2022-11-05T02:31:27.728Z,17.45
2022-11-05T02:33:54.187Z,17.45
2022-11-05T02:36:20.555Z,17.44
2022-11-05T02:38:46.837Z,17.42
2022-11-05T02:41:13.105Z,17.41
2022-11-05T02:43:39.373Z,17.40
2022-11-05T02:46:05.666Z,17.41
2022-11-05T02:48:32.014Z,17.43
2022-11-05T02:50:58.294Z,17.41
2022-11-05T02:53:24.567Z,17.43
2022-11-05T02:55:50.844Z,17.42
2022-11-05T02:58:17.294Z,17.42
2022-11-05T03:00:43.519Z,17.40
2022-11-05T03:03:10.087Z,17.42
2022-11-05T03:05:36.615Z,17.40
2022-11-05T03:08:02.947Z,17.41
2022-11-05T03:10:29.255Z,17.43
2022-11-05T03:12:55.530Z,17.41
2022-11-05T03:15:21.811Z,17.40
2022-11-05T03:17:48.183Z,17.39
2022-11-05T03:20:14.808Z,17.39
2022-11-05T03:22:41.363Z,17.38
2022-11-05T03:25:07.796Z,17.39
2022-11-05T03:27:34.129Z,17.39
2022-11-05T03:30:00.478Z,17.38
2022-11-05T03:32:26.755Z,17.38
2022-11-05T03:34:53.076Z,17.39
2022-11-05T03:37:19.345Z,17.38
2022-11-05T03:39:45.647Z,17.38
2022-11-05T03:42:11.915Z,17.39
2022-11-05T03:44:38.184Z,17.39
2022-11-05T03:47:04.502Z,17.38
2022-11-05T03:49:30.945Z,17.39
2022-11-05T03:51:57.315Z,17.39
2022-11-05T03:54:23.636Z,17.36
2022-11-05T03:56:49.916Z,17.39
2022-11-05T03:59:16.192Z,17.38
2022-11-05T04:01:42.662Z,17.36
2022-11-05T04:04:09.362Z,17.35
2022-11-05T04:06:35.626Z,17.35
2022-11-05T04:09:01.929Z,17.37
2022-11-05T04:11:28.188Z,17.36
2022-11-05T04:13:54.445Z,17.38
2022-11-05T04:16:20.751Z,17.36
2022-11-05T04:18:47.423Z,17.35
2022-11-05T04:21:13.708Z,17.35
2022-11-05T04:23:39.993Z,17.37
2022-11-05T04:26:06.351Z,17.36
2022-11-05T04:28:32.708Z,17.37
2022-11-05T04:30:58.976Z,17.36
2022-11-05T04:33:25.335Z,17.35
2022-11-05T04:35:51.614Z,17.34
2022-11-05T04:38:18.155Z,17.34
2022-11-05T04:40:44.436Z,17.34
2022-11-05T04:43:15.141Z,17.35
2022-11-05T04:45:42.028Z,17.35
2022-11-05T04:48:08.299Z,17.34
2022-11-05T04:50:34.552Z,17.33
2022-11-05T04:53:00.834Z,17.32
2022-11-05T04:55:27.199Z,17.34
2022-11-05T04:57:53.514Z,17.32
2022-11-05T05:00:19.799Z,17.32
2022-11-05T05:02:46.720Z,17.33
2022-11-05T05:05:12.997Z,17.32
2022-11-05T05:07:39.429Z,17.37
2022-11-05T05:10:05.727Z,17.34
2022-11-05T05:12:32.020Z,17.33
2022-11-05T05:14:58.332Z,17.32
2022-11-05T05:17:24.718Z,17.37
2022-11-05T05:19:51.044Z,17.36
2022-11-05T05:22:17.312Z,17.32
2022-11-05T05:24:46.293Z,17.32
2022-11-05T05:27:14.892Z,17.34
2022-11-05T05:29:41.385Z,17.32
2022-11-05T05:32:07.615Z,17.30
2022-11-05T05:34:33.998Z,17.31
2022-11-05T05:37:00.554Z,17.29
2022-11-05T05:39:26.895Z,17.32
2022-11-05T05:41:53.154Z,17.30
2022-11-05T05:44:19.482Z,17.30
2022-11-05T05:46:46.122Z,17.30
2022-11-05T05:49:12.778Z,17.30
2022-11-05T05:51:39.239Z,17.27
2022-11-05T05:54:05.667Z,17.28
2022-11-05T05:56:31.955Z,17.31
2022-11-05T05:58:58.273Z,17.31
2022-11-05T06:01:24.582Z,17.28
2022-11-05T06:03:51.206Z,17.33
2022-11-05T06:06:17.533Z,17.29
2022-11-05T06:08:43.852Z,17.30
2022-11-05T06:11:10.233Z,17.27
2022-11-05T06:13:36.531Z,17.28
2022-11-05T06:16:02.833Z,17.25
2022-11-05T06:18:29.704Z,17.25
2022-11-05T06:20:56.133Z,17.27
2022-11-05T06:23:22.509Z,17.30
2022-11-05T06:25:48.782Z,17.27
2022-11-05T06:28:15.097Z,17.28
2022-11-05T06:30:41.494Z,17.27
2022-11-05T06:33:08.146Z,17.28
2022-11-05T06:35:34.504Z,17.25
2022-11-05T06:38:00.844Z,17.27
2022-11-05T06:40:27.152Z,17.30
2022-11-05T06:42:53.570Z,17.25
2022-11-05T06:45:19.992Z,17.26
2022-11-05T06:47:46.580Z,17.26
2022-11-05T06:50:12.887Z,17.28
2022-11-05T06:52:41.256Z,17.25
2022-11-05T06:55:07.679Z,17.24
2022-11-05T06:57:33.904Z,17.26
2022-11-05T07:00:04.438Z,17.27
2022-11-05T07:02:33.848Z,17.28
2022-11-05T07:05:00.180Z,17.28
2022-11-05T07:07:26.520Z,17.26
2022-11-05T07:09:52.810Z,17.23
2022-11-05T07:12:19.077Z,17.22
2022-11-05T07:14:45.461Z,17.22
2022-11-05T07:17:11.773Z,17.22
2022-11-05T07:19:38.037Z,17.23
2022-11-05T07:22:04.328Z,17.20
2022-11-05T07:24:30.626Z,17.23
2022-11-05T07:26:56.973Z,17.20
2022-11-05T07:29:23.258Z,17.24
2022-11-05T07:31:49.567Z,17.23
2022-11-05T07:34:15.849Z,17.21
2022-11-05T07:36:42.155Z,17.22
2022-11-05T07:39:08.530Z,17.20
2022-11-05T07:41:34.883Z,17.19
2022-11-05T07:44:01.196Z,17.21
2022-11-05T07:46:27.525Z,17.16
2022-11-05T07:48:53.930Z,17.18
2022-11-05T07:51:20.160Z,17.15
2022-11-05T07:53:46.804Z,17.15
2022-11-05T07:56:13.211Z,17.18
2022-11-05T07:58:39.816Z,17.18
2022-11-05T08:01:06.155Z,17.18
2022-11-05T08:03:32.680Z,17.18
2022-11-05T08:05:59.148Z,17.15
2022-11-05T08:08:25.452Z,17.19
2022-11-05T08:10:51.746Z,17.19
2022-11-05T08:13:18.002Z,17.15
2022-11-05T08:15:44.368Z,17.15
2022-11-05T08:18:10.680Z,17.17
2022-11-05T08:20:37.107Z,17.13
2022-11-05T08:23:03.451Z,17.16
2022-11-05T08:25:29.796Z,17.14
2022-11-05T08:27:56.186Z,17.14
2022-11-05T08:30:22.494Z,17.14
2022-11-05T08:32:48.933Z,17.13
2022-11-05T08:35:15.288Z,17.14
2022-11-05T08:37:41.570Z,17.16
2022-11-05T08:40:08.045Z,17.16
2022-11-05T08:42:34.387Z,17.17
2022-11-05T08:45:00.673Z,17.13
2022-11-05T08:47:27.108Z,17.11
2022-11-05T08:49:53.336Z,17.13
2022-11-05T08:52:19.650Z,17.11
2022-11-05T08:54:45.943Z,17.14
2022-11-05T08:57:12.400Z,17.14
2022-11-05T08:59:38.791Z,17.14
2022-11-05T09:02:05.324Z,17.13
2022-11-05T09:04:31.770Z,17.14
2022-11-05T09:06:58.064Z,17.17
2022-11-05T09:09:24.384Z,17.14
2022-11-05T09:12:11.214Z,17.14
2022-11-05T09:14:37.227Z,17.13
2022-11-05T09:17:03.501Z,17.13
2022-11-05T09:19:29.762Z,17.17
2022-11-05T09:21:56.014Z,17.14
2022-11-05T09:24:22.332Z,17.11
2022-11-05T09:26:48.696Z,17.16
2022-11-05T09:29:15.052Z,17.17
2022-11-05T09:31:41.434Z,17.15
2022-11-05T09:34:07.941Z,17.15
2022-11-05T09:36:34.257Z,17.13
2022-11-05T09:39:00.616Z,17.13
2022-11-05T09:41:26.960Z,17.12
2022-11-05T09:43:53.316Z,17.14
2022-11-05T09:46:19.570Z,17.12
2022-11-05T09:48:45.830Z,17.11
2022-11-05T09:51:12.170Z,17.12
2022-11-05T09:53:38.401Z,17.14
2022-11-05T09:56:04.829Z,17.13
2022-11-05T09:58:31.160Z,17.12
2022-11-05T10:00:57.681Z,17.13
2022-11-05T10:03:24.033Z,17.13
2022-11-05T10:05:50.349Z,17.12
2022-11-05T10:08:16.784Z,17.14
2022-11-05T10:10:43.088Z,17.15
2022-11-05T10:13:09.661Z,17.12
2022-11-05T10:15:36.273Z,17.12
2022-11-05T10:18:02.603Z,17.10
2022-11-05T10:20:28.924Z,17.13
2022-11-05T10:22:55.315Z,17.14
2022-11-05T10:25:21.698Z,17.13
2022-11-05T10:27:48.159Z,17.13
2022-11-05T10:30:14.611Z,17.14
2022-11-05T10:32:41.318Z,17.15
2022-11-05T10:35:07.671Z,17.12
2022-11-05T10:37:38.208Z,17.12
2022-11-05T10:40:06.977Z,17.14
2022-11-05T10:42:33.473Z,17.11
2022-11-05T10:44:59.720Z,17.12
2022-11-05T10:47:26.110Z,17.13
2022-11-05T10:49:52.510Z,17.12
2022-11-05T10:52:19.048Z,17.09
2022-11-05T10:54:45.568Z,17.04
2022-11-05T10:57:11.795Z,17.00
2022-11-05T10:59:38.037Z,16.98
2022-11-05T11:02:04.379Z,16.98
2022-11-05T11:04:36.531Z,17.03
2022-11-05T11:07:03.951Z,16.97
2022-11-05T11:09:30.239Z,16.98
2022-11-05T11:11:56.860Z,16.98
2022-11-05T11:14:23.139Z,16.97
2022-11-05T11:16:49.534Z,16.90
2022-11-05T11:19:15.848Z,16.96
2022-11-05T11:21:42.144Z,16.96
2022-11-05T11:24:08.600Z,16.96
2022-11-05T11:26:35.092Z,16.94
2022-11-05T11:29:01.395Z,16.94
2022-11-05T11:31:27.791Z,16.95
2022-11-05T11:33:54.310Z,16.98
2022-11-05T11:36:20.827Z,16.95
2022-11-05T11:38:47.193Z,16.95
2022-11-05T11:41:13.670Z,16.97
2022-11-05T11:43:40.108Z,17.09
2022-11-05T11:46:11.132Z,17.07
2022-11-05T11:48:40.366Z,17.07
2022-11-05T11:51:07.025Z,17.10
2022-11-05T11:53:33.328Z,17.09
2022-11-05T11:56:00.647Z,17.32
2022-11-05T11:58:27.033Z,17.14
2022-11-05T12:00:53.329Z,17.14
2022-11-05T12:03:20.378Z,17.15
2022-11-05T12:05:47.094Z,17.17
2022-11-05T12:08:13.411Z,17.45
2022-11-05T12:10:39.735Z,17.29
2022-11-05T12:13:06.278Z,17.29
2022-11-05T12:15:32.800Z,17.31
2022-11-05T12:17:59.098Z,17.35
2022-11-05T12:20:25.419Z,17.36
2022-11-05T12:22:51.952Z,17.41
2022-11-05T12:25:18.538Z,17.45
2022-11-05T12:27:44.901Z,17.53
2022-11-05T12:30:11.221Z,17.58
2022-11-05T12:32:38.155Z,17.66
2022-11-05T12:35:04.758Z,17.70
2022-11-05T12:37:31.071Z,17.77
2022-11-05T12:39:57.507Z,17.83
2022-11-05T12:42:23.790Z,17.85
2022-11-05T12:44:50.131Z,17.91
2022-11-05T12:47:16.544Z,17.93
2022-11-05T12:49:42.749Z,17.90
2022-11-05T12:52:09.079Z,17.90
2022-11-05T12:54:35.828Z,17.94
2022-11-05T12:57:02.151Z,18.01
2022-11-05T12:59:28.850Z,18.11
2022-11-05T13:01:55.385Z,18.14
2022-11-05T13:04:21.816Z,18.21
2022-11-05T13:06:48.353Z,18.21
2022-11-05T13:09:14.639Z,18.27
2022-11-05T13:11:40.955Z,18.31
2022-11-05T13:14:07.320Z,18.34
2022-11-05T13:16:33.557Z,18.34
2022-11-05T13:19:00.037Z,18.39
2022-11-05T13:21:26.544Z,18.41
2022-11-05T13:23:53.061Z,18.42
2022-11-05T13:26:19.968Z,18.42
2022-11-05T13:28:46.415Z,18.44
2022-11-05T13:31:12.759Z,18.43
2022-11-05T13:33:39.078Z,18.44
2022-11-05T13:36:05.768Z,18.50
2022-11-05T13:38:32.046Z,18.51
2022-11-05T13:40:58.625Z,18.57
2022-11-05T13:43:25.309Z,18.58
2022-11-05T13:45:51.747Z,18.58
2022-11-05T13:48:18.164Z,18.62
2022-11-05T13:50:44.394Z,18.69
2022-11-05T13:53:11.022Z,18.72
2022-11-05T13:55:37.706Z,18.79
2022-11-05T13:58:04.037Z,18.85
2022-11-05T14:00:30.294Z,18.87
2022-11-05T14:02:56.942Z,18.90
2022-11-05T14:05:23.245Z,18.93
2022-11-05T14:07:49.802Z,18.93
2022-11-05T14:10:16.219Z,18.96
2022-11-05T14:12:42.632Z,18.98
2022-11-05T14:15:09.075Z,18.98
2022-11-05T14:17:35.470Z,19.01
2022-11-05T14:20:01.766Z,19.02
2022-11-05T14:22:28.465Z,19.02
2022-11-05T14:24:54.844Z,19.05
2022-11-05T14:27:21.200Z,19.05
2022-11-05T14:29:47.586Z,19.08
2022-11-05T14:32:13.940Z,19.08
2022-11-05T14:34:40.251Z,19.10
2022-11-05T14:37:06.492Z,19.09
2022-11-05T14:39:32.880Z,19.13
2022-11-05T14:41:59.228Z,19.12
2022-11-05T14:44:25.686Z,19.13
2022-11-05T14:46:52.586Z,19.13
2022-11-05T14:49:29.722Z,19.16
2022-11-05T14:51:56.178Z,19.16
2022-11-05T14:54:22.491Z,19.16
2022-11-05T14:56:54.905Z,19.20
2022-11-05T14:59:22.466Z,19.21
2022-11-05T15:01:48.868Z,19.22
2022-11-05T15:04:15.321Z,19.23
2022-11-05T15:06:41.900Z,19.22
2022-11-05T15:09:08.342Z,19.23
2022-11-05T15:11:34.713Z,19.22
2022-11-05T15:14:01.024Z,19.20
2022-11-05T15:16:27.383Z,19.21
2022-11-05T15:18:53.652Z,19.21
2022-11-05T15:21:19.955Z,19.20
2022-11-05T15:23:46.236Z,19.22
2022-11-05T15:26:12.623Z,19.21
2022-11-05T15:28:38.911Z,19.21
2022-11-05T15:31:05.251Z,19.23
2022-11-05T15:33:31.788Z,19.23
2022-11-05T15:35:58.241Z,19.23
2022-11-05T15:38:24.859Z,19.22
2022-11-05T15:40:51.100Z,19.21
2022-11-05T15:43:17.714Z,19.22
2022-11-05T15:45:44.037Z,19.21
2022-11-05T15:48:10.326Z,19.21
2022-11-05T15:50:36.593Z,19.20
2022-11-05T15:53:20.769Z,19.20
2022-11-05T15:55:49.434Z,19.20
2022-11-05T15:58:15.817Z,19.19
2022-11-05T16:00:42.104Z,19.20
2022-11-05T16:03:08.764Z,19.18
2022-11-05T16:05:35.205Z,19.19
2022-11-05T16:08:01.579Z,19.19
2022-11-05T16:10:27.943Z,19.18
2022-11-05T16:12:54.432Z,19.19
2022-11-05T16:15:20.716Z,19.20
2022-11-05T16:17:47.019Z,19.18
2022-11-05T16:20:13.516Z,19.12
2022-11-05T16:22:39.897Z,19.06
2022-11-05T16:25:06.194Z,19.03
2022-11-05T16:27:32.537Z,18.99
2022-11-05T16:29:58.856Z,18.98
2022-11-05T16:32:29.893Z,18.99
2022-11-05T16:34:57.320Z,18.99
2022-11-05T16:37:23.592Z,19.00
2022-11-05T16:39:49.910Z,18.99
2022-11-05T16:42:16.625Z,19.00
2022-11-05T16:44:43.210Z,19.01
2022-11-05T16:47:09.529Z,19.00
2022-11-05T16:49:35.932Z,19.00
2022-11-05T16:52:02.171Z,19.02
2022-11-05T16:54:28.667Z,19.02
2022-11-05T16:56:54.993Z,19.03
2022-11-05T16:59:21.266Z,19.06
2022-11-05T17:01:52.960Z,19.07
2022-11-05T17:04:21.763Z,19.13
2022-11-05T17:06:48.034Z,19.15
2022-11-05T17:09:14.420Z,19.21
2022-11-05T17:11:40.901Z,19.21
2022-11-05T17:14:07.231Z,19.26
2022-11-05T17:16:33.539Z,19.28
2022-11-05T17:18:59.957Z,19.29
2022-11-05T17:21:26.419Z,19.31
2022-11-05T17:23:52.972Z,19.33
2022-11-05T17:26:19.243Z,19.38
2022-11-05T17:28:45.695Z,19.40
2022-11-05T17:31:11.952Z,19.44
2022-11-05T17:33:38.374Z,19.46
2022-11-05T17:36:04.736Z,19.47
2022-11-05T17:38:31.375Z,19.51
2022-11-05T17:40:57.704Z,19.52
2022-11-05T17:43:23.959Z,19.55
2022-11-05T17:45:50.249Z,19.59
2022-11-05T17:48:16.754Z,19.63
2022-11-05T17:50:43.318Z,19.66
2022-11-05T17:53:10.566Z,19.69
2022-11-05T17:55:37.006Z,19.73
2022-11-05T17:58:03.529Z,19.74
2022-11-05T18:00:29.815Z,19.77
2022-11-05T18:02:56.209Z,19.84
2022-11-05T18:05:22.533Z,19.85
2022-11-05T18:07:49.246Z,19.87
2022-11-05T18:10:15.624Z,19.90
2022-11-05T18:12:41.944Z,19.90
2022-11-05T18:15:08.336Z,19.90
2022-11-05T18:17:34.787Z,19.91
2022-11-05T18:20:01.322Z,19.92
2022-11-05T18:22:27.682Z,19.93
2022-11-05T18:24:53.956Z,19.95
2022-11-05T18:27:20.510Z,19.87
2022-11-05T18:29:46.844Z,19.88
2022-11-05T18:32:13.155Z,19.89
2022-11-05T18:34:39.438Z,19.90
2022-11-05T18:37:05.698Z,19.90
2022-11-05T18:39:32.036Z,19.92
2022-11-05T18:41:58.423Z,19.90
2022-11-05T18:44:24.898Z,19.90
2022-11-05T18:46:58.109Z,19.92
2022-11-05T18:49:24.899Z,19.93
2022-11-05T18:51:51.194Z,19.91
2022-11-05T18:54:17.937Z,19.94
2022-11-05T18:56:44.338Z,19.93
2022-11-05T18:59:35.043Z,19.95
2022-11-05T19:01:57.224Z,19.94
2022-11-05T19:04:23.631Z,19.95
2022-11-05T19:06:49.940Z,19.95
2022-11-05T19:09:16.489Z,19.96
2022-11-05T19:11:42.802Z,19.96
2022-11-05T19:14:09.213Z,19.95
2022-11-05T19:16:35.646Z,19.97
2022-11-05T19:19:01.964Z,19.97
2022-11-05T19:21:28.820Z,19.98
2022-11-05T19:23:55.171Z,19.97
2022-11-05T19:26:27.240Z,19.98
2022-11-05T19:28:54.769Z,19.97
2022-11-05T19:31:21.044Z,19.97
2022-11-05T19:33:47.634Z,20.00
2022-11-05T19:36:13.903Z,19.99
2022-11-05T19:38:40.162Z,20.00
2022-11-05T19:41:06.492Z,20.00
2022-11-05T19:43:32.884Z,20.01
2022-11-05T19:45:59.130Z,20.00
2022-11-05T19:48:25.741Z,20.01
2022-11-05T19:50:52.064Z,20.01
2022-11-05T19:53:18.344Z,20.03
2022-11-05T19:55:44.696Z,19.98
2022-11-05T19:58:11.261Z,19.99
2022-11-05T20:00:37.838Z,20.01
2022-11-05T20:03:04.554Z,20.02
2022-11-05T20:05:31.137Z,20.03
2022-11-05T20:07:57.465Z,20.03
2022-11-05T20:10:23.764Z,20.04
2022-11-05T20:12:50.121Z,20.05
2022-11-05T20:15:16.596Z,20.05
2022-11-05T20:17:42.963Z,20.05
2022-11-05T20:20:09.727Z,20.05
2022-11-05T20:22:36.132Z,20.03
2022-11-05T20:25:03.276Z,20.03
2022-11-05T20:27:29.689Z,20.04
2022-11-05T20:29:55.973Z,20.04
2022-11-05T20:32:22.374Z,20.05
2022-11-05T20:34:49.178Z,20.03
2022-11-05T20:37:15.708Z,20.01
2022-11-05T20:39:42.248Z,20.02
2022-11-05T20:42:08.553Z,20.02
2022-11-05T20:44:35.015Z,20.00
2022-11-05T20:47:01.901Z,19.99
2022-11-05T20:49:28.395Z,19.98
2022-11-05T20:51:54.704Z,19.96
2022-11-05T20:54:21.162Z,19.96
2022-11-05T20:56:47.705Z,19.95
2022-11-05T20:59:14.229Z,19.93
2022-11-05T21:01:40.858Z,19.91
2022-11-05T21:04:07.249Z,19.90
2022-11-05T21:06:33.846Z,19.89
2022-11-05T21:09:00.385Z,19.87
2022-11-05T21:11:26.721Z,19.86
2022-11-05T21:13:53.126Z,19.86
2022-11-05T21:16:19.366Z,19.85
2022-11-05T21:18:45.628Z,19.84
2022-11-05T21:21:12.132Z,19.79
2022-11-05T21:23:38.432Z,19.75
2022-11-05T21:26:04.917Z,19.71
2022-11-05T21:28:31.546Z,19.65
2022-11-05T21:30:57.823Z,19.66
2022-11-05T21:33:24.495Z,19.65
2022-11-05T21:35:50.959Z,19.64
2022-11-05T21:38:17.579Z,19.63
2022-11-05T21:40:43.880Z,19.63
2022-11-05T21:43:10.330Z,19.60
2022-11-05T21:45:36.561Z,19.62
2022-11-05T21:48:02.939Z,19.57
2022-11-05T21:50:29.819Z,19.57
2022-11-05T21:52:56.211Z,19.56
2022-11-05T21:55:22.488Z,19.54
2022-11-05T21:57:48.930Z,19.55
2022-11-05T22:00:15.296Z,19.53
2022-11-05T22:02:41.830Z,19.52
2022-11-05T22:05:08.362Z,19.53
2022-11-05T22:07:34.718Z,19.51
2022-11-05T22:10:01.157Z,19.51
2022-11-05T22:12:27.429Z,19.51
2022-11-05T22:14:53.688Z,19.48
2022-11-05T22:17:20.299Z,19.49
2022-11-05T22:19:46.723Z,19.47
2022-11-05T22:22:13.035Z,19.47
2022-11-05T22:24:39.391Z,19.47
2022-11-05T22:27:05.836Z,19.46
2022-11-05T22:29:32.146Z,19.45
2022-11-05T22:31:58.455Z,19.44
2022-11-05T22:34:24.797Z,19.44
2022-11-05T22:36:51.051Z,19.44
2022-11-05T22:39:17.417Z,19.43
2022-11-05T22:41:43.858Z,19.42
2022-11-05T22:44:10.233Z,19.42
2022-11-05T22:46:36.500Z,19.42
2022-11-05T22:49:03.206Z,19.39
2022-11-05T22:51:29.557Z,19.39
2022-11-05T22:53:56.187Z,19.36
2022-11-05T22:56:22.592Z,19.39
2022-11-05T22:58:48.878Z,19.39
2022-11-05T23:01:15.208Z,19.39
2022-11-05T23:03:41.646Z,19.39
2022-11-05T23:06:08.978Z,19.39
2022-11-05T23:08:35.306Z,19.40
2022-11-05T23:16:14.631Z,19.36
2022-11-05T23:18:41.059Z,19.35
2022-11-05T23:21:07.404Z,19.36
2022-11-05T23:23:34.047Z,19.37
2022-11-05T23:26:00.451Z,19.35
2022-11-05T23:28:26.792Z,19.34
2022-11-05T23:36:10.639Z,19.22
2022-11-05T23:38:36.967Z,19.07
2022-11-05T23:41:03.327Z,19.06
2022-11-05T23:43:30.088Z,19.09
2022-11-05T23:45:56.556Z,19.08
2022-11-05T23:48:22.853Z,19.09
2022-11-05T23:50:49.298Z,19.06
2022-11-05T23:53:15.554Z,19.07
2022-11-05T23:55:41.794Z,19.06
2022-11-05T23:58:08.123Z,19.06
